NCAR-RAP Real-Time Weather Data

Output produced by METARs form (20 February 2019  17:50 UTC)
found at http://weather.rap.ucar.edu/surface/
 
RJNK 201700Z 33012KT 9999 FEW015 SCT060 BKN080 07/M02 Q1021
RJNK 201600Z 32015KT 9999 FEW015 SCT030 BKN050 07/M01 Q1022
RJNK 201500Z 33011KT 9999 FEW015 SCT050 BKN080 07/01 Q1021
RJNK 201400Z 32013KT 9999 FEW015 SCT030 BKN080 08/02 Q1021
RJNK 201300Z 32012KT 9999 FEW015 SCT030 BKN050 08/03 Q1021
RJNK 201200Z 31013KT 9999 FEW010 BKN030 BKN050 07/03 Q1020
RJNK 201100Z 30015KT 9999 -SHRA FEW008 SCT015 BKN030 07/05 Q1020
RJNK 201000Z 29008KT 9999 -SHRA FEW010 SCT015 BKN030 08/06 Q1019
RJNK 200900Z 24006KT 200V280 7000 -SHRA FEW008 SCT010 BKN015 08/06 Q1019
RJNK 200800Z 21006KT 9999 -SHRA FEW008 SCT015 BKN030 08/06 Q1018
RJNK 200700Z 25006KT 9999 -SHRA FEW008 SCT015 BKN030 08/06 Q1017
RJNK 200600Z 23003KT 190V300 8000 -SHRA FEW008 BKN015 BKN030 09/06 Q1017
RJNK 200500Z 19004KT 150V210 9999 FEW008 SCT015 BKN030 09/06 Q1017
RJNK 200400Z 26004KT 230V290 9999 -SHRA FEW008 SCT015 BKN030 09/07 Q1017
RJNK 200300Z 22003KT 190V270 7000 -SHRA FEW008 BKN015 OVC030 09/07 Q1017
RJNK 200200Z 30007KT 270V330 9999 -SHRA FEW008 SCT015 OVC030 10/06 Q1018
RJNK 200100Z 30011KT 9999 FEW008 SCT015 BKN030 10/07 Q1018
RJNK 200000Z 31008KT 9999 -SHRA FEW008 SCT010 BKN015 10/08 Q1017
RJNK 192300Z 22005KT 190V250 9999 -SHRA FEW008 BKN015 BKN030 10/10 Q1017
RJNK 192200Z 20005KT 9999 -SHRA FEW015 BKN030 BKN060 10/09 Q1016
RJNK 192100Z 19004KT 9999 FEW015 SCT020 BKN030 10/10 Q1016
RJNK 192000Z 19005KT 9999 FEW015 BKN030 BKN040 11/10 Q1015
RJNK 191900Z 27009KT 9999 FEW005 SCT008 BKN015 11/10 Q1015
RJNK 191800Z 23007KT 200V260 8000 -SHRA FEW008 BKN015 BKN030 12/10 Q1016
RJNK 191700Z 23009KT 9999 FEW008 BKN015 BKN030 12/10 Q1016
RJNK 191600Z 23011KT 9999 FEW010 BKN030 BKN060 12/10 Q1016
RJNK 191500Z 22012KT 9999 FEW010 BKN030 BKN060 12/11 Q1015
RJNK 191400Z 25017KT 9999 FEW008 SCT010 BKN030 13/12 Q1014
RJNK 191300Z 22016KT 8000 -SHRA FEW015 BKN030 BKN060 13/11 Q1013
RJNK 191200Z 03004KT 360V130 9999 FEW030 BKN060 10/09 Q1011
RJNK 191100Z 11009KT 090V150 9999 -SHRA FEW007 BKN060 12/08 Q1010
RJNK 191000Z VRB02KT 8000 -SHRA FEW007 BKN060 11/09 Q1009
RJNK 190900Z VRB02KT 9999 FEW007 SCT030 BKN060 09/08 Q1009
RJNK 190800Z 05004KT 8000 -RA FEW007 BKN060 OVC070 09/08 Q1010
RJNK 190700Z 04008KT 5000 -RA BR FEW007 BKN060 OVC070 08/08 Q1012
RJNK 190600Z 04006KT 4000 -RA BR FEW007 BKN060 OVC070 08/07 Q1013
RJNK 190500Z 03005KT 9999 -RA FEW007 BKN060 OVC070 09/07 Q1015
RJNK 190400Z 01003KT 9999 -RA FEW007 BKN050 OVC070 09/06 Q1016
RJNK 190300Z 05006KT 9999 -RA FEW030 BKN050 OVC070 09/06 Q1018
RJNK 190200Z 05004KT 9999 -RA FEW030 BKN060 OVC080 09/05 Q1020
RJNK 190100Z 21008KT 9999 -RA FEW030 BKN060 OVC080 11/02 Q1020
RJNK 190000Z 22003KT 200V260 9999 -RA FEW050 SCT060 OVC080 09/01 Q1022
RJNK 182300Z 11006KT 9999 FEW050 SCT060 BKN080 06/01 Q1022
RJNK 182200Z 09003KT 9999 FEW050 BKN080 BKN100 05/02 Q1023
RJNK 182100Z VRB02KT 9999 FEW050 BKN080 BKN100 05/01 Q1024
RJNK 182000Z 19003KT 9999 FEW050 BKN080 BKN100 05/02 Q1023
RJNK 181900Z 17003KT 9999 SCT080 BKN100 BKN120 05/02 Q1023
RJNK 181800Z VRB02KT 9999 FEW080 BKN100 BKN120 05/01 Q1024
RJNK 181700Z 11003KT 9999 FEW100 BKN130 BKN150 05/01 Q1024
RJNK 181600Z 12004KT 9999 FEW100 BKN150 BKN180 05/01 Q1025
RJNK 181500Z 11003KT 9999 BKN150 BKN180 03/01 Q1026
RJNK 181400Z 12004KT 9999 FEW030 SCT150 BKN180 04/01 Q1026
RJNK 181300Z 20003KT 9999 FEW030 SCT/// 04/01 Q1027
RJNK 181200Z 15003KT 9999 FEW030 SCT180 BKN/// 05/02 Q1026
RJNK 181100Z VRB02KT 9999 FEW060 BKN/// 06/02 Q1026
RJNK 181000Z VRB01KT 9999 FEW060 BKN/// 07/02 Q1026
RJNK 180900Z 23003KT 9999 FEW060 BKN/// 08/01 Q1026
RJNK 180800Z 29005KT 9999 FEW060 BKN250 09/01 Q1025
RJNK 180700Z 31006KT 9999 FEW030 SCT250 10/M00 Q1025
RJNK 180600Z 31007KT 280V350 9999 FEW030 SCT250 11/M00 Q1025